createdAt,value
2022-10-29T00:00:12.060Z,90.72
2022-10-29T00:01:12.104Z,90.82
2022-10-29T00:02:12.032Z,90.72
2022-10-29T00:03:12.129Z,91.02
2022-10-29T00:04:12.015Z,90.52
2022-10-29T00:05:11.999Z,89.91
2022-10-29T00:06:11.996Z,89.40
2022-10-29T00:07:11.980Z,89.81
2022-10-29T00:08:11.967Z,89.91
2022-10-29T00:09:11.981Z,90.21
2022-10-29T00:10:11.951Z,90.31
2022-10-29T00:11:11.939Z,90.41
2022-10-29T00:12:11.925Z,90.21
2022-10-29T00:13:11.939Z,90.21
2022-10-29T00:14:11.926Z,89.91
2022-10-29T00:15:11.901Z,90.31
2022-10-29T00:16:11.894Z,89.91
2022-10-29T00:17:11.874Z,90.21
2022-10-29T00:18:11.870Z,90.21
2022-10-29T00:19:11.871Z,90.72
2022-10-29T00:20:11.870Z,90.52
2022-10-29T00:21:11.840Z,90.31
2022-10-29T00:22:11.831Z,90.21
2022-10-29T00:23:11.808Z,89.91
2022-10-29T00:24:11.804Z,90.72
2022-10-29T00:25:11.812Z,89.81
2022-10-29T00:26:11.784Z,90.41
2022-10-29T00:27:11.780Z,89.81
2022-10-29T00:28:11.761Z,89.61
2022-10-29T00:29:11.749Z,89.85
2022-10-29T00:30:11.744Z,89.95
2022-10-29T00:31:11.748Z,89.95
2022-10-29T00:32:11.784Z,89.95
2022-10-29T00:33:11.775Z,90.45
2022-10-29T00:34:11.697Z,90.11
2022-10-29T00:35:11.677Z,89.61
2022-10-29T00:36:11.693Z,89.70
2022-10-29T00:37:11.657Z,90.11
2022-10-29T00:38:11.655Z,90.11
2022-10-29T00:39:11.640Z,89.81
2022-10-29T00:40:11.636Z,90.41
2022-10-29T00:41:11.619Z,89.45
2022-10-29T00:42:11.634Z,89.81
2022-10-29T00:43:11.595Z,89.95
2022-10-29T00:44:11.601Z,90.56
2022-10-29T00:45:11.574Z,91.06
2022-10-29T00:46:11.565Z,90.36
2022-10-29T00:47:11.558Z,89.85
2022-10-29T00:48:11.540Z,89.75
2022-10-29T00:49:11.531Z,90.16
2022-10-29T00:50:11.537Z,90.16
2022-10-29T00:51:11.511Z,89.14
2022-10-29T00:52:11.506Z,90.16
2022-10-29T00:53:11.485Z,89.75
2022-10-29T00:54:11.501Z,90.11
2022-10-29T00:55:11.485Z,89.65
2022-10-29T00:56:11.458Z,89.40
2022-10-29T00:57:11.455Z,89.20
2022-10-29T00:58:11.442Z,89.40
2022-10-29T00:59:11.424Z,89.30
2022-10-29T01:00:11.421Z,88.74
2022-10-29T01:01:11.447Z,89.75
2022-10-29T01:02:11.577Z,90.01
2022-10-29T01:03:11.500Z,89.91
2022-10-29T01:04:11.377Z,90.25
2022-10-29T01:05:11.363Z,89.24
2022-10-29T01:06:11.358Z,89.95
2022-10-29T01:07:11.365Z,90.66
2022-10-29T01:08:11.335Z,90.45
2022-10-29T01:09:11.333Z,89.85
2022-10-29T05:00:58.276Z,94.66
2022-10-29T05:01:58.986Z,95.06
2022-10-29T05:02:59.309Z,95.17
2022-10-29T05:04:00.146Z,94.82
2022-10-29T05:04:58.962Z,94.82
2022-10-29T05:05:58.950Z,95.53
2022-10-29T05:06:58.935Z,96.03
2022-10-29T05:07:58.946Z,95.94
2022-10-29T05:08:58.916Z,95.22
2022-10-29T05:09:58.926Z,95.02
2022-10-29T05:10:58.898Z,94.92
2022-10-29T05:11:58.896Z,94.92
2022-10-29T05:12:59.040Z,94.82
2022-10-29T05:13:58.889Z,94.51
2022-10-29T05:14:58.865Z,94.31
2022-10-29T05:15:58.844Z,94.31
2022-10-29T05:16:58.916Z,94.61
2022-10-29T05:17:59.032Z,95.02
2022-10-29T05:18:58.807Z,95.22
2022-10-29T05:19:58.811Z,95.42
2022-10-29T05:20:58.784Z,95.63
2022-10-29T05:21:58.775Z,95.63
2022-10-29T05:22:58.767Z,95.83
2022-10-29T05:23:58.746Z,95.83
2022-10-29T05:24:58.766Z,94.82
2022-10-29T05:25:58.734Z,94.82
2022-10-29T05:26:58.719Z,95.02
2022-10-29T05:27:58.717Z,94.92
2022-10-29T05:28:58.708Z,95.02
2022-10-29T05:29:58.682Z,95.32
2022-10-29T05:30:58.701Z,95.22
2022-10-29T05:31:58.670Z,95.63
2022-10-29T05:32:59.081Z,95.22
2022-10-29T05:33:58.665Z,94.61
2022-10-29T05:34:58.646Z,94.41
2022-10-29T05:35:58.627Z,95.02
2022-10-29T05:36:58.647Z,94.51
2022-10-29T05:37:58.608Z,94.31
2022-10-29T05:38:58.593Z,94.82
2022-10-29T05:39:58.584Z,95.12
2022-10-29T05:40:58.572Z,95.22
2022-10-29T05:41:58.568Z,95.53
2022-10-29T05:42:58.894Z,95.63
2022-10-29T05:43:58.537Z,95.53
2022-10-29T05:44:58.537Z,95.53
2022-10-29T05:45:58.538Z,95.73
2022-10-29T05:46:58.507Z,95.94
2022-10-29T05:47:58.572Z,95.63
2022-10-29T05:48:58.439Z,95.73
2022-10-29T05:49:58.418Z,96.14
2022-10-29T05:50:58.412Z,95.02
2022-10-29T05:51:58.407Z,94.41
2022-10-29T05:52:58.641Z,94.82
2022-10-29T05:53:58.396Z,95.12
2022-10-29T05:54:58.366Z,95.63
2022-10-29T05:55:58.358Z,95.94
2022-10-29T05:56:58.353Z,95.02
2022-10-29T05:57:58.334Z,94.82
2022-10-29T05:58:58.329Z,95.18
2022-10-29T05:59:58.345Z,95.32
2022-10-29T06:00:58.313Z,95.68
2022-10-29T06:01:58.432Z,95.28
2022-10-29T06:02:58.662Z,95.38
2022-10-29T06:03:58.275Z,94.71
2022-10-29T06:04:58.266Z,94.21
2022-10-29T06:05:58.275Z,94.92
2022-10-29T06:06:58.308Z,95.22
2022-10-29T06:07:58.417Z,95.32
2022-10-29T06:08:58.422Z,95.42
2022-10-29T06:09:58.204Z,95.63
2022-10-29T06:10:58.227Z,95.68
2022-10-29T06:11:58.184Z,95.18
2022-10-29T06:12:58.173Z,95.73
2022-10-29T06:13:58.157Z,96.14
2022-10-29T06:14:58.161Z,95.58
2022-10-29T06:15:58.166Z,95.99
2022-10-29T06:16:58.140Z,95.58
2022-10-29T06:17:58.470Z,95.18
2022-10-29T06:18:58.125Z,95.18
2022-10-29T06:19:58.115Z,95.18
2022-10-29T06:20:58.091Z,95.07
2022-10-29T06:22:00.401Z,94.77
2022-10-29T06:22:58.560Z,94.98
2022-10-29T06:23:58.051Z,95.89
2022-10-29T06:24:58.061Z,94.98
2022-10-29T06:25:58.039Z,94.67
2022-10-29T06:26:58.024Z,94.17
2022-10-29T06:27:58.025Z,94.06
2022-10-29T06:28:58.019Z,94.77
2022-10-29T06:29:57.995Z,94.26
2022-10-29T06:30:57.988Z,94.26
2022-10-29T06:31:57.970Z,94.87
2022-10-29T06:32:58.225Z,95.18
2022-10-29T06:33:57.965Z,95.28
2022-10-29T06:34:57.944Z,95.07
2022-10-29T06:35:57.930Z,94.77
2022-10-29T06:36:57.921Z,95.07
2022-10-29T06:37:58.337Z,95.38
2022-10-29T06:38:57.910Z,95.89
2022-10-29T06:39:57.908Z,95.18
2022-10-29T06:40:57.880Z,95.18
2022-10-29T06:41:57.866Z,95.38
2022-10-29T06:42:57.858Z,94.77
2022-10-29T06:43:57.844Z,95.18
2022-10-29T06:44:57.837Z,95.79
2022-10-29T06:45:57.857Z,94.77
2022-10-29T06:46:57.848Z,94.26
2022-10-29T06:47:58.362Z,94.26
2022-10-29T06:48:57.795Z,94.26
2022-10-29T06:49:57.777Z,94.46
2022-10-29T06:50:57.789Z,94.37
2022-10-29T06:51:57.767Z,94.57
2022-10-29T06:52:58.038Z,94.77
2022-10-29T06:53:57.737Z,95.18
2022-10-29T06:54:57.764Z,95.38
2022-10-29T06:55:57.718Z,94.98
2022-10-29T06:56:57.724Z,94.87
2022-10-29T06:57:57.695Z,94.37
2022-10-29T06:58:57.704Z,94.67
2022-10-29T06:59:57.694Z,94.57
2022-10-29T07:01:57.737Z,94.37
2022-10-29T07:02:58.248Z,94.77
2022-10-29T07:03:57.636Z,94.98
2022-10-29T07:04:57.642Z,94.57
2022-10-29T07:05:57.639Z,94.12
2022-10-29T07:06:57.606Z,94.57
2022-10-29T07:07:58.028Z,93.61
2022-10-29T07:08:57.576Z,93.81
2022-10-29T07:09:57.566Z,93.81
2022-10-29T07:10:57.577Z,94.02
2022-10-29T07:11:57.542Z,93.81
2022-10-29T07:12:57.544Z,94.42
2022-10-29T07:13:57.520Z,94.62
2022-10-29T07:14:57.511Z,94.83
2022-10-29T07:15:57.500Z,94.62
2022-10-29T07:16:57.516Z,93.81
2022-10-29T07:17:58.055Z,93.81
2022-10-29T07:18:57.471Z,94.42
2022-10-29T07:19:57.456Z,95.54
2022-10-29T07:20:57.452Z,95.34
2022-10-29T07:21:57.435Z,95.34
2022-10-29T07:22:57.456Z,94.73
2022-10-29T07:23:57.417Z,95.03
2022-10-29T07:25:00.249Z,95.23
2022-10-29T07:25:57.396Z,95.03
2022-10-29T07:26:57.388Z,94.83
2022-10-29T07:27:57.731Z,94.42
2022-10-29T07:28:57.390Z,94.83
2022-10-29T07:29:57.373Z,95.13
2022-10-29T07:30:57.341Z,95.03
2022-10-29T07:31:57.325Z,94.83
2022-10-29T07:32:57.329Z,94.73
2022-10-29T07:33:57.310Z,94.62
2022-10-29T07:34:57.314Z,94.62
2022-10-29T07:35:57.289Z,94.62
2022-10-29T07:36:57.281Z,93.41
2022-10-29T07:37:57.747Z,93.21
2022-10-29T07:38:57.259Z,94.12
2022-10-29T07:39:57.264Z,92.60
2022-10-29T07:40:57.247Z,93.41
2022-10-29T07:41:59.277Z,93.81
2022-10-29T07:42:57.553Z,93.87
2022-10-29T07:43:57.209Z,93.46
2022-10-29T07:44:57.225Z,92.96
2022-10-29T07:45:57.183Z,93.06
2022-10-29T07:46:57.170Z,92.45
2022-10-29T07:48:02.488Z,92.96
2022-10-29T07:48:57.158Z,92.86
2022-10-29T07:49:57.142Z,92.96
2022-10-29T07:50:57.156Z,92.76
2022-10-29T07:51:57.136Z,92.55
2022-10-29T07:52:57.507Z,92.05
2022-10-29T07:53:57.098Z,92.14
2022-10-29T07:54:57.089Z,92.76
2022-10-29T07:55:57.081Z,91.70
2022-10-29T07:56:57.065Z,92.10
2022-10-29T07:57:57.623Z,92.31
2022-10-29T07:58:57.048Z,92.10
2022-10-29T07:59:57.034Z,92.82
2022-10-29T08:00:57.056Z,92.82
2022-10-29T08:01:57.190Z,92.41
2022-10-29T08:02:57.003Z,91.50
2022-10-29T08:03:57.011Z,92.10
2022-10-29T08:04:56.987Z,91.60
2022-10-29T08:05:56.982Z,91.39
2022-10-29T08:06:56.961Z,92.00
2022-10-29T08:07:57.287Z,92.10
2022-10-29T08:08:56.952Z,90.54
2022-10-29T08:09:56.927Z,91.35
2022-10-29T08:10:56.917Z,90.95
2022-10-29T08:11:56.905Z,91.05
2022-10-29T08:12:57.295Z,91.25
2022-10-29T08:13:56.878Z,91.35
2022-10-29T08:14:56.891Z,91.96
2022-10-29T08:15:56.856Z,91.46
2022-10-29T08:16:56.850Z,91.66
2022-10-29T08:17:56.835Z,90.24
2022-10-29T08:18:56.827Z,90.95
2022-10-29T08:19:56.831Z,91.00
2022-10-29T08:20:56.835Z,90.50
2022-10-29T08:21:56.797Z,90.50
2022-10-29T08:22:56.975Z,90.50
2022-10-29T08:23:56.774Z,91.11
2022-10-29T08:24:56.769Z,90.70
2022-10-29T08:25:56.752Z,91.11
2022-10-29T08:26:56.760Z,90.80
2022-10-29T08:27:58.797Z,90.30
2022-10-29T08:28:56.725Z,89.99
2022-10-29T08:29:56.714Z,90.09
2022-10-29T08:30:56.710Z,90.91
2022-10-29T08:31:56.719Z,90.09
2022-10-29T08:32:57.108Z,90.20
2022-10-29T08:33:56.676Z,89.89
2022-10-29T08:34:56.667Z,91.06
2022-10-29T08:35:56.684Z,89.95
2022-10-29T08:36:56.690Z,89.79
2022-10-29T08:37:56.639Z,89.54
2022-10-29T08:38:56.632Z,89.65
2022-10-29T08:39:56.608Z,90.66
2022-10-29T08:40:56.602Z,90.76
2022-10-29T08:41:56.622Z,90.96
2022-10-29T08:42:56.835Z,91.16
2022-10-29T08:43:56.611Z,89.75
2022-10-29T08:44:56.553Z,90.45
2022-10-29T08:45:56.562Z,89.85
2022-10-29T08:46:56.536Z,89.54
2022-10-29T08:47:56.930Z,89.54
2022-10-29T08:48:56.520Z,90.25
2022-10-29T08:49:56.536Z,89.54
2022-10-29T08:50:56.495Z,89.65
2022-10-29T08:51:56.479Z,90.05
2022-10-29T08:53:21.813Z,90.05
2022-10-29T08:54:25.042Z,91.27
2022-10-29T08:54:56.464Z,91.87
2022-10-29T08:55:56.438Z,90.11
2022-10-29T08:56:56.439Z,90.92
2022-10-29T08:57:56.690Z,90.92
2022-10-29T08:58:56.400Z,91.73
2022-10-29T08:59:56.441Z,91.02
2022-10-29T09:00:56.435Z,90.52
2022-10-29T09:01:56.505Z,90.62
2022-10-29T09:02:56.753Z,91.12
2022-10-29T09:03:56.365Z,90.52
2022-10-29T09:04:56.359Z,91.12
2022-10-29T09:05:56.345Z,91.22
2022-10-29T09:06:56.324Z,90.31
2022-10-29T09:07:58.404Z,90.92
2022-10-29T09:08:56.306Z,90.41
2022-10-29T09:09:56.309Z,90.31
2022-10-29T09:10:56.275Z,91.49
2022-10-29T09:11:56.301Z,91.99
2022-10-29T09:12:56.608Z,91.18
2022-10-29T09:13:56.257Z,92.29
2022-10-29T09:14:56.235Z,90.17
2022-10-29T09:15:57.856Z,89.76
2022-10-29T09:16:56.211Z,90.37
2022-10-29T09:17:56.592Z,90.58
2022-10-29T09:18:56.188Z,89.87
2022-10-29T09:19:56.181Z,90.58
2022-10-29T09:20:56.179Z,89.46
2022-10-29T09:21:56.193Z,89.56
2022-10-29T09:22:56.145Z,90.67
2022-10-29T09:23:56.142Z,90.47
2022-10-29T09:24:56.126Z,91.49
2022-10-29T09:25:56.132Z,90.12
2022-10-29T09:26:56.097Z,89.72
2022-10-29T09:27:56.374Z,90.23
2022-10-29T09:28:56.081Z,89.52
2022-10-29T09:29:56.078Z,89.72
2022-10-29T09:30:56.068Z,89.52
2022-10-29T09:31:56.060Z,90.12
2022-10-29T09:32:56.060Z,89.42
2022-10-29T09:33:59.256Z,89.32
2022-10-29T09:34:56.018Z,90.73
2022-10-29T09:35:56.019Z,88.97
2022-10-29T09:36:55.997Z,89.12
2022-10-29T09:37:56.360Z,87.56
2022-10-29T09:38:55.982Z,87.66
2022-10-29T09:39:56.009Z,88.87
2022-10-29T09:40:55.984Z,87.96
2022-10-29T09:41:55.945Z,88.67
2022-10-29T09:42:55.941Z,89.07
2022-10-29T09:43:55.936Z,89.98
2022-10-29T09:44:55.924Z,89.48
2022-10-29T09:45:55.922Z,88.37
2022-10-29T09:46:55.891Z,88.47
2022-10-29T09:47:56.213Z,89.07
2022-10-29T09:48:55.949Z,87.86
2022-10-29T09:49:55.886Z,87.52
2022-10-29T09:50:55.838Z,87.72
2022-10-29T09:51:55.861Z,88.12
2022-10-29T09:52:56.180Z,88.02
2022-10-29T09:53:55.822Z,87.01
2022-10-29T09:54:55.799Z,87.41
2022-10-29T09:55:55.805Z,86.10
2022-10-29T09:56:56.318Z,87.12
2022-10-29T09:57:55.783Z,87.62
2022-10-29T09:58:55.765Z,87.01
2022-10-29T09:59:55.759Z,85.60
2022-10-29T10:00:55.745Z,86.81
2022-10-29T10:01:55.831Z,88.02
2022-10-29T10:02:56.280Z,88.02
2022-10-29T10:03:55.752Z,86.81
2022-10-29T10:04:55.691Z,85.30
2022-10-29T10:05:55.688Z,86.36
2022-10-29T10:06:55.707Z,86.67
2022-10-29T10:07:56.046Z,85.56
2022-10-29T10:08:55.702Z,87.68
2022-10-29T10:09:55.657Z,85.36
2022-10-29T10:10:55.634Z,86.27
2022-10-29T10:11:55.624Z,86.77
2022-10-29T10:12:55.620Z,85.66
2022-10-29T10:13:55.605Z,85.46
2022-10-29T10:14:55.610Z,85.86
2022-10-29T10:15:55.597Z,87.07
2022-10-29T10:16:55.570Z,88.39
2022-10-29T10:17:56.083Z,87.27
2022-10-29T10:18:55.548Z,86.36
2022-10-29T10:19:55.548Z,86.77
2022-10-29T10:20:55.548Z,86.36
2022-10-29T10:21:55.519Z,86.97
2022-10-29T10:22:55.861Z,86.16
2022-10-29T10:23:55.499Z,85.96
2022-10-29T10:24:55.489Z,84.75
2022-10-29T10:25:58.897Z,84.85
2022-10-29T10:26:55.501Z,84.65
2022-10-29T10:27:55.781Z,85.16
2022-10-29T10:28:55.450Z,84.21
2022-10-29T10:29:55.430Z,85.72
2022-10-29T10:30:55.414Z,84.61
2022-10-29T10:31:55.408Z,84.81
2022-10-29T10:32:55.712Z,84.91
2022-10-29T10:33:55.398Z,85.22
2022-10-29T10:34:55.371Z,85.62
2022-10-29T10:35:55.365Z,85.42
2022-10-29T10:36:55.381Z,85.62
2022-10-29T10:37:55.666Z,85.02
2022-10-29T10:38:55.350Z,84.21
2022-10-29T10:39:55.331Z,84.77
2022-10-29T10:40:55.325Z,84.67
2022-10-29T10:41:55.362Z,83.16
2022-10-29T10:42:55.294Z,84.37
2022-10-29T10:43:55.320Z,82.25
2022-10-29T10:44:55.277Z,82.05
2022-10-29T10:45:55.271Z,83.56
2022-10-29T10:46:55.247Z,83.46
2022-10-29T10:47:55.776Z,82.82
2022-10-29T10:48:55.225Z,82.82
2022-10-29T10:49:55.229Z,83.72
2022-10-29T10:50:55.201Z,84.33
2022-10-29T10:51:55.223Z,83.32
2022-10-29T10:52:55.608Z,83.42
2022-10-29T10:53:55.284Z,83.42
2022-10-29T10:54:55.167Z,82.31
2022-10-29T10:55:55.163Z,82.11
2022-10-29T10:56:55.141Z,83.32
2022-10-29T10:57:55.128Z,82.51
2022-10-29T10:58:55.144Z,82.51
2022-10-29T10:59:55.126Z,83.02
2022-10-29T11:00:55.193Z,81.91
2022-10-29T11:01:55.215Z,82.21
2022-10-29T11:02:55.416Z,82.71
2022-10-29T11:03:55.107Z,80.87
2022-10-29T11:04:55.086Z,80.97
2022-10-29T11:05:55.053Z,81.10
2022-10-29T11:06:55.057Z,83.28
2022-10-29T11:07:55.401Z,82.38
2022-10-29T11:08:55.010Z,81.07
2022-10-29T11:09:55.007Z,80.36
2022-10-29T11:10:55.016Z,80.66
2022-10-29T11:11:58.793Z,80.46
2022-10-29T11:12:55.002Z,79.56
2022-10-29T11:14:00.968Z,82.88
2022-10-29T11:14:54.961Z,81.07
2022-10-29T11:15:54.946Z,80.87
2022-10-29T11:16:54.936Z,80.36
2022-10-29T11:17:55.013Z,80.87
2022-10-29T11:18:54.913Z,79.96
2022-10-29T11:19:54.920Z,81.07
2022-10-29T11:20:54.891Z,80.93
2022-10-29T11:21:54.870Z,81.84
2022-10-29T11:22:55.337Z,81.63
2022-10-29T11:23:54.851Z,81.73
2022-10-29T11:24:54.866Z,81.03
2022-10-29T11:25:54.824Z,79.72
2022-10-29T11:26:54.823Z,79.72
2022-10-29T11:27:54.826Z,84.05
2022-10-29T11:28:54.803Z,81.43
2022-10-29T11:29:54.796Z,79.42
2022-10-29T11:30:54.832Z,81.13
2022-10-29T11:31:54.781Z,78.41
2022-10-29T11:32:55.264Z,78.91
2022-10-29T11:33:54.774Z,79.22
2022-10-29T11:34:54.734Z,78.81
2022-10-29T11:35:57.409Z,80.08
2022-10-29T11:36:54.720Z,79.28
2022-10-29T11:37:55.098Z,79.58
2022-10-29T11:38:54.699Z,78.88
2022-10-29T11:39:54.680Z,79.38
2022-10-29T11:40:54.663Z,80.49
2022-10-29T11:41:54.690Z,79.18
2022-10-29T11:42:54.649Z,78.67
2022-10-29T11:43:54.640Z,78.07
2022-10-29T11:44:54.636Z,78.58
2022-10-29T11:45:54.621Z,80.19
2022-10-29T11:46:54.614Z,79.74
2022-10-29T11:47:55.094Z,79.64
2022-10-29T11:48:54.654Z,78.23
2022-10-29T11:49:54.581Z,78.44
2022-10-29T11:50:54.564Z,77.73
2022-10-29T11:51:54.560Z,78.23
2022-10-29T11:52:54.840Z,78.64
2022-10-29T11:53:54.573Z,78.74
2022-10-29T11:54:54.523Z,79.14
2022-10-29T11:55:54.531Z,78.94
2022-10-29T11:56:54.493Z,78.74
2022-10-29T11:57:54.497Z,79.64
2022-10-29T11:58:54.472Z,78.64
2022-10-29T11:59:54.480Z,79.14
2022-10-29T12:00:54.454Z,79.24
2022-10-29T12:01:54.522Z,78.00
2022-10-29T12:02:54.991Z,78.50
2022-10-29T12:03:54.427Z,79.30
2022-10-29T12:04:54.413Z,80.01
2022-10-29T12:05:54.400Z,82.42
2022-10-29T12:06:54.397Z,78.70
2022-10-29T12:07:54.704Z,79.61
2022-10-29T12:08:54.372Z,80.11
2022-10-29T12:09:54.360Z,78.00
2022-10-29T12:10:54.354Z,81.15
2022-10-29T12:11:55.237Z,80.05
2022-10-29T12:12:54.329Z,79.35
2022-10-29T12:13:54.347Z,78.14
2022-10-29T12:14:54.310Z,80.55
2022-10-29T12:15:54.309Z,79.85
2022-10-29T12:16:54.299Z,78.74
2022-10-29T12:17:54.731Z,79.74
2022-10-29T12:18:54.282Z,79.91
2022-10-29T12:19:54.437Z,78.50
2022-10-29T12:20:54.242Z,78.54
2022-10-29T12:21:54.231Z,79.04
2022-10-29T12:22:56.716Z,77.94
2022-10-29T12:23:54.232Z,78.34
2022-10-29T12:24:54.205Z,77.33
2022-10-29T12:25:54.186Z,78.94
2022-10-29T12:26:54.187Z,78.14
2022-10-29T12:27:54.188Z,81.41
2022-10-29T12:28:54.184Z,78.70
2022-10-29T12:29:54.151Z,79.61
2022-10-29T12:30:54.135Z,80.11
2022-10-29T12:31:54.135Z,77.59
2022-10-29T12:32:54.513Z,78.80
2022-10-29T12:33:54.129Z,78.00
2022-10-29T12:34:54.114Z,77.70
2022-10-29T12:35:54.128Z,77.43
2022-10-29T12:36:57.508Z,78.94
2022-10-29T12:37:54.359Z,77.80
2022-10-29T12:38:54.048Z,77.80
2022-10-29T12:39:54.060Z,77.39
2022-10-29T12:40:54.028Z,78.40
2022-10-29T12:41:54.016Z,77.09
2022-10-29T12:42:54.015Z,79.41
2022-10-29T12:43:54.014Z,79.30
2022-10-29T12:44:54.015Z,78.30
2022-10-29T12:46:18.498Z,75.99
2022-10-29T12:46:53.967Z,78.20
2022-10-29T12:47:54.397Z,79.50
2022-10-29T12:48:53.952Z,79.91
2022-10-29T12:49:53.934Z,77.00
2022-10-29T12:50:53.932Z,76.49
2022-10-29T12:51:54.045Z,77.70
2022-10-29T12:52:53.986Z,78.10
2022-10-29T12:53:53.889Z,79.00
2022-10-29T12:54:53.899Z,80.11
2022-10-29T12:55:53.870Z,79.41
2022-10-29T12:56:53.860Z,80.41
2022-10-29T12:57:53.854Z,77.00
2022-10-29T12:58:53.837Z,78.30
2022-10-29T12:59:53.850Z,78.20
2022-10-29T13:00:53.863Z,79.30
2022-10-29T13:02:54.054Z,79.41
2022-10-29T13:03:53.785Z,79.00
2022-10-29T13:04:53.781Z,77.20
2022-10-29T13:05:53.763Z,78.00
2022-10-29T13:06:53.774Z,78.80
2022-10-29T13:07:54.090Z,78.00
2022-10-29T13:08:53.768Z,77.39
2022-10-29T13:09:53.713Z,79.91
2022-10-29T13:10:53.766Z,77.80
2022-10-29T13:11:53.702Z,77.09
2022-10-29T13:12:53.693Z,79.00
2022-10-29T13:13:53.681Z,77.39
2022-10-29T13:14:53.674Z,78.70
2022-10-29T13:15:53.687Z,77.50
2022-10-29T13:16:53.656Z,78.10
2022-10-29T13:17:53.792Z,79.30
2022-10-29T13:18:53.630Z,80.41
2022-10-29T13:19:53.619Z,80.01
2022-10-29T13:20:53.605Z,78.30
2022-10-29T13:21:53.622Z,79.50
2022-10-29T13:22:53.594Z,78.80
2022-10-29T13:23:53.567Z,79.41
2022-10-29T13:24:53.555Z,80.21
2022-10-29T13:25:53.552Z,78.90
2022-10-29T13:26:53.564Z,78.40
2022-10-29T13:27:53.557Z,80.11
2022-10-29T13:28:53.537Z,80.01
2022-10-29T13:29:53.505Z,79.30
2022-10-29T13:30:53.493Z,79.00
2022-10-29T13:31:53.493Z,79.81
2022-10-29T13:32:53.670Z,78.80
2022-10-29T13:33:53.505Z,81.01
2022-10-29T13:34:53.460Z,81.82
2022-10-29T13:35:53.440Z,80.81
2022-10-29T13:36:53.436Z,81.62
2022-10-29T13:37:53.444Z,80.01
2022-10-29T13:39:06.040Z,80.81
2022-10-29T13:39:53.416Z,81.12
2022-10-29T13:40:53.390Z,79.71
2022-10-29T13:41:53.382Z,80.91
2022-10-29T13:42:53.586Z,79.91
2022-10-29T13:43:53.376Z,80.81
2022-10-29T13:44:53.383Z,81.52
2022-10-29T13:45:53.345Z,81.72
2022-10-29T13:46:53.328Z,80.61
2022-10-29T13:47:53.318Z,78.90
2022-10-29T13:48:53.316Z,80.21
2022-10-29T13:49:53.301Z,77.70
2022-10-29T13:50:53.302Z,78.50
2022-10-29T13:51:53.334Z,80.11
2022-10-29T13:52:53.366Z,81.62
2022-10-29T13:53:53.249Z,77.39
2022-10-29T13:54:53.263Z,78.20
2022-10-29T13:55:53.228Z,80.11
2022-10-29T13:56:53.258Z,79.81
2022-10-29T13:57:53.220Z,81.72
2022-10-29T13:58:53.192Z,80.41
2022-10-29T13:59:53.190Z,82.12
2022-10-29T14:00:53.239Z,81.41
2022-10-29T14:01:53.388Z,78.60
2022-10-29T14:02:53.173Z,80.11
2022-10-29T14:03:53.143Z,80.41
2022-10-29T14:04:53.136Z,79.47
2022-10-29T14:05:53.113Z,79.37
2022-10-29T14:06:53.123Z,81.27
2022-10-29T14:07:53.333Z,81.18
2022-10-29T14:08:53.099Z,81.78
2022-10-29T14:09:53.084Z,82.18
2022-10-29T14:10:53.067Z,82.38
2022-10-29T14:11:53.060Z,81.48
2022-10-29T14:12:53.058Z,81.78
2022-10-29T14:13:53.059Z,81.58
2022-10-29T14:14:53.029Z,80.47
2022-10-29T14:15:53.025Z,78.06
2022-10-29T14:16:53.019Z,80.37
2022-10-29T14:17:52.999Z,81.78
2022-10-29T14:18:53.005Z,81.88
2022-10-29T14:19:52.990Z,80.88
2022-10-29T14:20:52.969Z,80.57
2022-10-29T14:21:52.950Z,78.66
2022-10-29T14:22:52.936Z,80.27
2022-10-29T14:23:52.934Z,79.06
2022-10-29T14:24:52.939Z,79.27
2022-10-29T14:25:52.907Z,78.36
2022-10-29T14:26:52.893Z,78.86
2022-10-29T14:27:52.885Z,80.27
2022-10-29T14:28:52.874Z,81.27
2022-10-29T14:29:54.725Z,81.07
2022-10-29T14:30:52.860Z,79.83
2022-10-29T14:31:52.838Z,78.27
2022-10-29T14:32:52.830Z,79.97
2022-10-29T14:33:52.839Z,80.17
2022-10-29T14:34:52.830Z,80.63
2022-10-29T14:35:52.805Z,81.18
2022-10-29T14:36:52.810Z,80.33
2022-10-29T14:37:52.783Z,78.56
2022-10-29T14:38:52.797Z,80.54
2022-10-29T14:39:58.524Z,79.73
2022-10-29T14:40:52.767Z,80.54
2022-10-29T14:41:52.752Z,80.94
2022-10-29T14:42:52.742Z,80.54
2022-10-29T14:43:52.721Z,81.84
2022-10-29T14:44:52.711Z,80.04
2022-10-29T14:45:52.712Z,82.14
2022-10-29T14:46:52.686Z,80.74
2022-10-29T14:47:52.683Z,80.74
2022-10-29T14:48:52.659Z,81.74
2022-10-29T14:49:52.689Z,80.43
2022-10-29T14:50:52.649Z,82.45
2022-10-29T14:51:52.630Z,80.33
2022-10-29T14:52:53.948Z,81.94
2022-10-29T14:53:52.622Z,81.44
2022-10-29T14:54:52.610Z,81.84
2022-10-29T14:55:52.591Z,79.83
2022-10-29T14:56:52.587Z,82.14
2022-10-29T14:57:52.568Z,82.14
2022-10-29T14:58:52.562Z,83.04
2022-10-29T14:59:52.623Z,81.14
2022-10-29T15:00:52.607Z,82.78
2022-10-29T15:01:56.703Z,82.18
2022-10-29T15:02:52.708Z,82.78
2022-10-29T15:03:52.504Z,82.28
2022-10-29T15:04:52.533Z,81.98
2022-10-29T15:05:52.520Z,83.39
2022-10-29T15:06:52.483Z,83.69
2022-10-29T15:07:52.471Z,83.29
2022-10-29T15:08:52.469Z,83.79
2022-10-29T15:09:52.438Z,83.69
2022-10-29T15:10:52.439Z,82.98
2022-10-29T15:11:52.437Z,84.69
2022-10-29T15:12:52.431Z,84.19
2022-10-29T15:13:52.400Z,84.59
2022-10-29T15:14:52.383Z,84.59
2022-10-29T15:15:52.377Z,84.89
2022-10-29T15:16:52.388Z,84.89
2022-10-29T15:17:52.348Z,85.19
2022-10-29T15:18:52.355Z,82.68
2022-10-29T15:19:56.313Z,79.47
2022-10-29T15:20:52.331Z,81.18
2022-10-29T15:21:52.310Z,83.59
2022-10-29T15:22:52.311Z,84.09
2022-10-29T15:23:52.317Z,84.63
2022-10-29T15:24:52.293Z,84.99
2022-10-29T15:25:52.272Z,84.43
2022-10-29T15:26:52.257Z,85.74
2022-10-29T15:27:52.247Z,85.64
2022-10-29T15:28:52.249Z,85.44
2022-10-29T15:29:52.269Z,85.84
2022-10-29T15:30:52.232Z,86.44
2022-10-29T15:31:52.208Z,86.54
2022-10-29T15:32:52.207Z,84.53
2022-10-29T15:33:52.213Z,83.43
2022-10-29T15:34:52.184Z,82.92
2022-10-29T15:35:52.152Z,85.03
2022-10-29T15:36:52.158Z,84.33
2022-10-29T15:37:52.140Z,85.24
2022-10-29T15:38:52.680Z,85.24
2022-10-29T15:39:52.148Z,85.64
2022-10-29T15:40:52.130Z,86.74
2022-10-29T15:41:52.094Z,85.44
2022-10-29T15:42:52.138Z,86.34
2022-10-29T15:43:52.081Z,86.44
2022-10-29T15:44:52.059Z,86.14
2022-10-29T15:45:52.063Z,86.48
2022-10-29T15:46:52.059Z,85.48
2022-10-29T15:47:52.035Z,86.88
2022-10-29T15:48:52.045Z,87.08
2022-10-29T15:49:52.010Z,84.17
2022-10-29T15:50:52.009Z,84.07
2022-10-29T15:51:51.997Z,85.48
2022-10-29T15:52:51.996Z,86.28
2022-10-29T15:53:51.974Z,83.87
2022-10-29T15:54:51.957Z,86.18
2022-10-29T15:55:51.970Z,86.18
2022-10-29T15:56:51.995Z,85.88
2022-10-29T15:57:51.926Z,85.11
2022-10-29T15:58:51.920Z,84.41
2022-10-29T15:59:51.954Z,85.92
2022-10-29T16:00:51.949Z,86.32
2022-10-29T16:01:52.083Z,85.42
2022-10-29T16:02:51.876Z,85.92
2022-10-29T16:03:51.866Z,85.82
2022-10-29T16:04:51.856Z,85.62
2022-10-29T16:05:51.857Z,83.95
2022-10-29T16:06:51.840Z,84.95
2022-10-29T16:07:51.850Z,86.87
2022-10-29T16:08:51.813Z,85.36
2022-10-29T16:09:51.824Z,86.66
2022-10-29T16:10:51.890Z,87.47
2022-10-29T16:11:51.795Z,87.27
2022-10-29T16:12:51.761Z,86.77
2022-10-29T16:13:54.594Z,84.65
2022-10-29T16:14:51.757Z,83.25
2022-10-29T16:15:51.726Z,83.45
2022-10-29T16:16:51.730Z,83.69
2022-10-29T16:17:51.715Z,83.69
2022-10-29T16:18:51.709Z,85.10
2022-10-29T16:19:51.722Z,85.20
2022-10-29T16:20:51.688Z,85.70
2022-10-29T16:21:51.672Z,86.71
2022-10-29T16:22:51.676Z,86.30
2022-10-29T16:23:51.650Z,85.20
2022-10-29T16:24:51.663Z,83.89
2022-10-29T16:25:51.648Z,84.23
2022-10-29T16:26:51.623Z,83.83
2022-10-29T16:27:51.614Z,83.52
2022-10-29T16:28:51.616Z,84.13
2022-10-29T16:29:51.581Z,85.84
2022-10-29T16:30:51.590Z,85.94
2022-10-29T16:31:51.569Z,85.44
2022-10-29T16:32:51.616Z,84.63
2022-10-29T16:33:51.641Z,85.14
2022-10-29T16:34:51.631Z,85.14
2022-10-29T16:35:51.783Z,85.17
2022-10-29T16:36:51.596Z,85.68
2022-10-29T16:37:51.553Z,85.38
2022-10-29T16:38:51.540Z,86.79
2022-10-29T16:39:51.534Z,87.29
2022-10-29T16:40:51.529Z,88.10
2022-10-29T16:41:51.516Z,87.09
2022-10-29T16:42:51.514Z,86.29
2022-10-29T16:43:51.515Z,87.19
2022-10-29T16:44:51.496Z,88.00